createdAt,value
2016-10-19T00:00:25.984Z,11.37
2016-10-19T00:01:40.922Z,11.32
2016-10-19T00:02:26.024Z,11.27
2016-10-19T00:03:26.096Z,11.29
2016-10-19T00:04:26.070Z,11.25
2016-10-19T00:05:26.090Z,11.21
2016-10-19T00:06:41.041Z,11.28
2016-10-19T00:07:26.133Z,11.15
2016-10-19T00:08:26.154Z,11.17
2016-10-19T00:09:26.174Z,11.17
2016-10-19T00:10:26.206Z,11.17
2016-10-19T00:11:26.227Z,11.19
2016-10-19T00:13:26.269Z,11.21
2016-10-19T00:14:26.288Z,11.19
2016-10-19T00:15:41.229Z,11.21
2016-10-19T00:16:26.326Z,11.27
2016-10-19T00:17:26.358Z,11.29
2016-10-19T00:18:41.289Z,11.33
2016-10-19T00:19:26.393Z,11.24
2016-10-19T00:20:26.420Z,11.27
2016-10-19T00:21:26.436Z,11.36
2016-10-19T00:22:26.463Z,11.33
2016-10-19T00:23:26.485Z,11.22
2016-10-19T00:24:26.499Z,11.32
2016-10-19T00:25:26.522Z,11.28
2016-10-19T00:26:26.546Z,11.33
2016-10-19T00:27:26.571Z,11.25
2016-10-19T00:28:41.516Z,11.27
2016-10-19T00:29:26.614Z,11.32
2016-10-19T00:30:26.634Z,11.29
2016-10-19T00:31:41.576Z,11.28
2016-10-19T00:32:26.680Z,11.29
2016-10-19T00:33:26.707Z,11.27
2016-10-19T00:34:26.725Z,11.32
2016-10-19T00:35:26.742Z,11.36
2016-10-19T00:36:41.987Z,11.32
2016-10-19T00:37:26.790Z,11.32
2016-10-19T00:39:26.836Z,11.29
2016-10-19T00:40:26.860Z,11.36
2016-10-19T00:41:26.880Z,11.37
2016-10-19T00:42:26.903Z,11.39
2016-10-19T00:43:26.955Z,11.4
2016-10-19T00:44:26.940Z,11.27
2016-10-19T00:46:26.990Z,11.29
2016-10-19T00:47:27.006Z,11.35
2016-10-19T00:48:41.949Z,11.27
2016-10-19T00:49:27.051Z,11.27
2016-10-19T00:50:27.080Z,11.27
2016-10-19T00:51:27.097Z,11.27
2016-10-19T00:52:27.121Z,11.29
2016-10-19T00:53:27.145Z,11.28
2016-10-19T00:54:42.079Z,11.24
2016-10-19T00:55:27.190Z,11.28
2016-10-19T00:56:27.213Z,11.27
2016-10-19T00:57:27.229Z,11.28
2016-10-19T00:58:27.256Z,11.24
2016-10-19T00:59:27.265Z,11.25
2016-10-19T01:00:27.302Z,11.28
2016-10-19T01:01:27.320Z,11.29
2016-10-19T01:02:27.332Z,11.32
2016-10-19T01:03:27.360Z,11.28
2016-10-19T01:04:27.528Z,11.18
2016-10-19T01:05:27.399Z,11.24
2016-10-19T01:06:27.420Z,11.25
2016-10-19T01:07:27.442Z,11.25
2016-10-19T01:08:27.465Z,11.25
2016-10-19T01:09:27.484Z,11.24
2016-10-19T01:10:42.431Z,11.24
2016-10-19T01:11:27.530Z,11.25
2016-10-19T01:12:27.553Z,11.18
2016-10-19T01:14:27.594Z,11.22
2016-10-19T01:15:42.543Z,11.11
2016-10-19T01:16:42.563Z,11.11
2016-10-19T01:17:27.663Z,11.15
2016-10-19T01:18:27.687Z,11.18
2016-10-19T01:19:27.718Z,11.25
2016-10-19T01:20:27.726Z,11.18
2016-10-19T01:21:27.751Z,11.25
2016-10-19T01:22:27.778Z,11.17
2016-10-19T01:23:27.795Z,11.17
2016-10-19T01:24:27.821Z,11.18
2016-10-19T01:25:27.842Z,11.17
2016-10-19T01:26:42.779Z,11.25
2016-10-19T01:28:27.904Z,11.22
2016-10-19T01:29:27.933Z,11.18
2016-10-19T01:30:28.204Z,11.17
2016-10-19T01:31:27.968Z,11.27
2016-10-19T01:33:28.016Z,11.24
2016-10-19T01:34:28.038Z,11.25
2016-10-19T01:35:28.054Z,11.19
2016-10-19T01:36:28.078Z,11.17
2016-10-19T01:37:28.101Z,11.15
2016-10-19T01:38:43.040Z,11.11
2016-10-19T01:39:28.149Z,11.11
2016-10-19T01:41:43.109Z,11.1
2016-10-19T01:42:28.208Z,11.21
2016-10-19T01:44:28.251Z,11.22
2016-10-19T01:45:28.327Z,11.21
2016-10-19T01:47:28.325Z,11.11
2016-10-19T01:48:28.379Z,11.14
2016-10-19T01:50:28.383Z,11.09
2016-10-19T01:51:28.407Z,11.17
2016-10-19T01:52:28.433Z,11.09
2016-10-19T01:53:28.453Z,11.15
2016-10-19T01:54:28.469Z,11.02
2016-10-19T01:55:28.495Z,10.99
2016-10-19T01:56:28.818Z,11.07
2016-10-19T01:57:28.536Z,11.06
2016-10-19T01:58:28.559Z,11.07
2016-10-19T01:59:28.583Z,11.1
2016-10-19T02:00:28.602Z,11.07
2016-10-19T02:01:28.656Z,11.14
2016-10-19T02:02:28.642Z,11.03
2016-10-19T02:03:43.592Z,11.11
2016-10-19T02:04:28.726Z,11.17
2016-10-19T02:05:28.712Z,11.07
2016-10-19T02:06:28.740Z,11.14
2016-10-19T02:07:28.804Z,11.17
2016-10-19T02:08:28.828Z,11.11
2016-10-19T02:09:28.800Z,11.18
2016-10-19T02:10:28.822Z,11.17
2016-10-19T02:11:28.848Z,11.1
2016-10-19T02:12:28.874Z,11.07
2016-10-19T02:13:43.805Z,11.06
2016-10-19T02:14:28.906Z,11.19
2016-10-19T02:15:28.970Z,11.07
2016-10-19T02:16:28.956Z,11.14
2016-10-19T02:17:28.980Z,11.09
2016-10-19T02:18:28.999Z,11.1
2016-10-19T02:19:29.020Z,11.11
2016-10-19T02:20:29.074Z,11.07
2016-10-19T02:21:29.067Z,11.1
2016-10-19T02:22:44.005Z,11.09
2016-10-19T02:23:29.108Z,11.07
2016-10-19T02:24:44.044Z,10.94
2016-10-19T02:25:29.175Z,11.07
2016-10-19T02:26:29.173Z,11.02
2016-10-19T02:27:29.198Z,11.03
2016-10-19T02:28:29.246Z,11.07
2016-10-19T02:29:44.159Z,10.97
2016-10-19T02:30:29.262Z,11.06
2016-10-19T02:31:29.278Z,11.06
2016-10-19T02:32:29.325Z,11.03
2016-10-19T02:33:29.325Z,11.07
2016-10-19T02:34:29.345Z,11.06
2016-10-19T02:35:29.371Z,11.07
2016-10-19T02:36:29.398Z,11.04
2016-10-19T02:37:29.412Z,10.97
2016-10-19T02:38:29.432Z,11.04
2016-10-19T02:39:29.457Z,11.07
2016-10-19T02:40:29.476Z,11.04
2016-10-19T02:41:29.501Z,11.04
2016-10-19T02:42:29.523Z,11.06
2016-10-19T02:44:29.814Z,11.09
2016-10-19T02:45:44.502Z,11.11
2016-10-19T02:46:29.609Z,11.06
2016-10-19T02:47:29.627Z,11.06
2016-10-19T02:48:29.652Z,11.17
2016-10-19T02:49:29.676Z,11.07
2016-10-19T02:51:29.732Z,11.09
2016-10-19T02:52:29.990Z,11.11
2016-10-19T02:53:30.081Z,11.09
2016-10-19T02:54:44.712Z,11.11
2016-10-19T02:55:29.805Z,11.1
2016-10-19T02:56:30.125Z,11.14
2016-10-19T02:57:29.852Z,11.07
2016-10-19T02:58:44.787Z,11.15
2016-10-19T02:59:29.894Z,11.06
2016-10-19T03:00:29.912Z,11.09
2016-10-19T03:01:44.860Z,11.15
2016-10-19T03:02:29.956Z,11.19
2016-10-19T03:03:29.984Z,11.17
2016-10-19T03:05:30.020Z,11.18
2016-10-19T03:06:30.049Z,11.1
2016-10-19T03:07:30.075Z,11.1
2016-10-19T03:08:30.097Z,11.18
2016-10-19T03:09:30.121Z,11.19
2016-10-19T03:10:30.136Z,11.1
2016-10-19T03:11:30.162Z,11.14
2016-10-19T03:12:30.184Z,11.14
2016-10-19T03:13:30.239Z,11.11
2016-10-19T03:14:30.220Z,11.09
2016-10-19T03:15:30.241Z,11
2016-10-19T03:16:45.186Z,11.09
2016-10-19T03:18:30.308Z,11.03
2016-10-19T03:19:30.337Z,11.17
2016-10-19T03:20:30.352Z,11.07
2016-10-19T03:21:30.448Z,11.06
2016-10-19T03:22:30.401Z,11.14
2016-10-19T03:23:30.421Z,11.07
2016-10-19T03:24:30.444Z,11.18
2016-10-19T03:25:30.715Z,11.18
2016-10-19T03:26:30.528Z,11.1
2016-10-19T03:27:45.427Z,11.1
2016-10-19T03:28:30.535Z,11.09
2016-10-19T03:29:30.556Z,11.09
2016-10-19T03:30:30.572Z,11.06
2016-10-19T03:31:30.597Z,11.07
2016-10-19T03:32:30.620Z,10.99
2016-10-19T03:33:30.639Z,10.97
2016-10-19T03:34:30.670Z,10.94
2016-10-19T03:36:30.702Z,11.02
2016-10-19T03:37:30.764Z,10.97
2016-10-19T03:38:30.757Z,11
2016-10-19T03:39:30.777Z,10.96
2016-10-19T03:40:30.796Z,10.91
2016-10-19T03:41:45.735Z,10.96
2016-10-19T03:42:30.842Z,10.94
2016-10-19T03:43:30.863Z,10.97
2016-10-19T03:44:45.800Z,10.92
2016-10-19T03:45:45.818Z,10.97
2016-10-19T03:46:30.924Z,10.92
2016-10-19T03:47:30.988Z,10.89
2016-10-19T03:48:45.894Z,10.91
2016-10-19T03:49:30.996Z,10.89
2016-10-19T03:50:31.012Z,10.99
2016-10-19T03:51:31.034Z,10.91
2016-10-19T03:52:31.308Z,10.97
2016-10-19T03:53:31.086Z,10.89
2016-10-19T03:54:31.103Z,10.84
2016-10-19T03:55:31.123Z,10.85
2016-10-19T03:56:31.139Z,10.92
2016-10-19T03:57:46.085Z,10.82
2016-10-19T03:58:31.190Z,10.91
2016-10-19T03:59:31.212Z,10.94
2016-10-19T04:00:31.228Z,10.88
2016-10-19T04:01:46.168Z,10.86
2016-10-19T04:02:31.273Z,10.89
2016-10-19T04:03:31.332Z,10.85
2016-10-19T04:04:46.235Z,10.92
2016-10-19T04:05:31.346Z,10.85
2016-10-19T04:06:31.364Z,10.86
2016-10-19T04:07:31.428Z,10.88
2016-10-19T04:09:31.432Z,10.89
2016-10-19T04:10:46.374Z,10.73
2016-10-19T04:11:31.467Z,10.81
2016-10-19T04:12:46.416Z,10.85
2016-10-19T04:13:31.516Z,10.94
2016-10-19T04:14:31.538Z,10.85
2016-10-19T04:15:31.566Z,10.73
2016-10-19T04:16:31.586Z,10.78
2016-10-19T04:17:31.603Z,10.79
2016-10-19T04:20:46.583Z,10.71
2016-10-19T04:21:31.692Z,10.71
2016-10-19T04:23:31.740Z,10.7
2016-10-19T04:24:31.756Z,10.76
2016-10-19T04:25:31.783Z,10.73
2016-10-19T04:26:31.799Z,10.74
2016-10-19T04:27:31.816Z,10.78
2016-10-19T04:28:31.850Z,10.74
2016-10-19T04:29:31.861Z,10.74
2016-10-19T04:30:31.886Z,10.73
2016-10-19T04:31:31.906Z,10.73
2016-10-19T04:32:46.844Z,10.79
2016-10-19T04:33:31.954Z,10.67
2016-10-19T04:34:31.977Z,10.78
2016-10-19T04:35:31.992Z,10.76
2016-10-19T04:36:46.935Z,10.66
2016-10-19T04:38:32.054Z,10.71
2016-10-19T04:39:32.082Z,10.71
2016-10-19T04:40:32.103Z,10.68
2016-10-19T04:41:32.129Z,10.67
2016-10-19T04:42:32.148Z,10.61
2016-10-19T04:43:32.174Z,10.66
2016-10-19T04:44:32.191Z,10.73
2016-10-19T04:45:32.215Z,10.66
2016-10-19T04:46:32.268Z,10.64
2016-10-19T04:47:32.261Z,10.68
2016-10-19T04:48:47.194Z,10.73
2016-10-19T04:49:32.302Z,10.74
2016-10-19T04:50:32.328Z,10.67
2016-10-19T04:51:47.266Z,10.63
2016-10-19T04:52:32.367Z,10.67
2016-10-19T04:53:32.398Z,10.67
2016-10-19T04:54:32.409Z,10.74
2016-10-19T04:55:32.434Z,10.7
2016-10-19T04:57:32.474Z,10.82
2016-10-19T04:58:32.493Z,10.79
2016-10-19T04:59:32.519Z,10.78
2016-10-19T05:00:47.460Z,10.73
2016-10-19T05:01:32.562Z,10.7
2016-10-19T05:02:32.591Z,10.81
2016-10-19T05:03:32.607Z,10.81
2016-10-19T05:04:32.624Z,10.73
2016-10-19T05:05:32.652Z,10.7
2016-10-19T05:07:32.697Z,10.67
2016-10-19T05:09:32.732Z,10.86
2016-10-19T05:10:32.764Z,10.81
2016-10-19T05:11:47.701Z,10.84
2016-10-19T05:12:32.841Z,10.89
2016-10-19T05:13:32.829Z,10.74
2016-10-19T05:14:33.147Z,10.85
2016-10-19T05:15:32.865Z,10.86
2016-10-19T05:17:32.910Z,10.91
2016-10-19T05:18:47.848Z,10.85
2016-10-19T05:19:47.868Z,10.91
2016-10-19T05:20:32.975Z,10.89
2016-10-19T05:21:32.997Z,10.91
2016-10-19T05:22:33.020Z,10.84
2016-10-19T05:23:47.960Z,10.97
2016-10-19T05:24:33.060Z,10.89
2016-10-19T05:25:33.088Z,10.94
2016-10-19T05:26:33.113Z,10.92
2016-10-19T05:27:33.132Z,11
2016-10-19T05:29:33.171Z,10.97
2016-10-19T05:30:33.195Z,10.92
2016-10-19T05:31:48.135Z,10.97
2016-10-19T05:32:33.242Z,11.04
2016-10-19T05:33:33.256Z,10.99
2016-10-19T05:34:33.279Z,10.99
2016-10-19T05:35:33.304Z,10.97
2016-10-19T05:36:33.324Z,10.92
2016-10-19T05:37:33.348Z,10.89
2016-10-19T05:38:33.366Z,10.88
2016-10-19T05:39:48.308Z,10.91
2016-10-19T05:40:33.426Z,10.91
2016-10-19T05:41:33.429Z,10.97
2016-10-19T05:42:33.457Z,11.02
2016-10-19T05:43:33.474Z,11
2016-10-19T05:44:33.503Z,11.03
2016-10-19T05:45:48.441Z,11
2016-10-19T05:46:33.542Z,10.99
2016-10-19T05:47:33.564Z,10.97
2016-10-19T05:48:33.583Z,10.92
2016-10-19T05:49:33.602Z,10.91
2016-10-19T05:50:48.545Z,11
2016-10-19T05:51:33.649Z,11.03
2016-10-19T05:52:48.585Z,11.03
2016-10-19T05:53:33.688Z,11.03
2016-10-19T05:55:48.652Z,11.06
2016-10-19T05:56:33.754Z,11
2016-10-19T05:57:33.823Z,11
2016-10-19T05:58:33.793Z,11.07
2016-10-19T05:59:33.821Z,11.04
2016-10-19T06:00:33.848Z,11.1
2016-10-19T06:01:33.864Z,11.14
2016-10-19T06:02:33.884Z,11.1
2016-10-19T06:03:33.918Z,11.07
2016-10-19T06:04:33.939Z,11.1
2016-10-19T06:05:33.956Z,11.1
2016-10-19T06:06:48.891Z,11.11
2016-10-19T06:07:33.999Z,11.14
2016-10-19T06:08:34.020Z,11.1
2016-10-19T06:09:34.035Z,11.09
2016-10-19T06:10:34.065Z,11.11
2016-10-19T06:11:49.002Z,11.07
2016-10-19T06:12:34.107Z,11.11
2016-10-19T06:13:35.133Z,11.14
2016-10-19T06:14:34.147Z,11.18
2016-10-19T06:15:34.170Z,11.1
2016-10-19T06:16:34.205Z,11.17
2016-10-19T06:18:34.238Z,11.07
2016-10-19T06:19:34.253Z,11.17
2016-10-19T06:20:34.539Z,11.17
2016-10-19T06:21:49.219Z,11.27
2016-10-19T06:22:34.324Z,11.24
2016-10-19T06:23:34.349Z,11.27
2016-10-19T06:24:34.373Z,11.22
2016-10-19T06:25:34.386Z,11.25
2016-10-19T06:26:49.327Z,11.17
2016-10-19T06:27:34.432Z,11.17
2016-10-19T06:29:34.471Z,11.18
2016-10-19T06:30:34.495Z,11.15
2016-10-19T06:31:34.521Z,11.19
2016-10-19T06:32:34.547Z,11.15
2016-10-19T06:34:34.587Z,11.11
2016-10-19T06:35:34.605Z,11.07
2016-10-19T06:36:34.629Z,11.06
2016-10-19T06:37:49.568Z,10.91
2016-10-19T06:38:34.673Z,10.97
2016-10-19T06:39:34.695Z,11
2016-10-19T06:40:34.715Z,10.96
2016-10-19T06:41:34.737Z,10.92
2016-10-19T06:42:34.756Z,10.99
2016-10-19T06:43:34.774Z,10.91
2016-10-19T06:44:34.805Z,10.91
2016-10-19T06:45:34.828Z,10.92
2016-10-19T06:46:34.844Z,10.85
2016-10-19T06:48:35.138Z,10.86
2016-10-19T06:49:34.909Z,10.88
2016-10-19T06:50:34.929Z,10.85
2016-10-19T06:51:34.954Z,10.91
2016-10-19T06:52:34.974Z,10.82
2016-10-19T06:53:34.995Z,10.74
2016-10-19T06:54:35.016Z,10.86
2016-10-19T06:55:50.001Z,10.94
2016-10-19T06:56:35.062Z,10.91
2016-10-19T06:57:35.085Z,10.89
2016-10-19T06:58:50.324Z,10.73
2016-10-19T06:59:35.121Z,10.74
2016-10-19T07:00:35.183Z,10.78
2016-10-19T07:01:35.170Z,10.74
2016-10-19T07:02:35.189Z,10.76
2016-10-19T07:03:35.214Z,10.74
2016-10-19T07:04:35.233Z,10.71
2016-10-19T07:05:35.256Z,10.76
2016-10-19T07:06:35.280Z,10.74
2016-10-19T07:08:35.313Z,10.91
2016-10-19T07:09:35.338Z,10.85
2016-10-19T07:10:50.276Z,10.79
2016-10-19T07:11:35.380Z,10.7
2016-10-19T07:12:35.408Z,10.78
2016-10-19T07:13:35.434Z,10.91
2016-10-19T07:14:50.369Z,10.89
2016-10-19T07:15:35.477Z,10.94
2016-10-19T07:16:35.530Z,10.91
2016-10-19T07:17:35.510Z,10.86
2016-10-19T07:19:35.557Z,10.92
2016-10-19T07:20:35.571Z,10.89
2016-10-19T07:21:35.600Z,10.99
2016-10-19T07:22:50.541Z,10.97
2016-10-19T07:23:35.891Z,10.96
2016-10-19T07:24:35.971Z,10.91
2016-10-19T07:25:35.691Z,10.94
2016-10-19T07:26:50.625Z,10.88
2016-10-19T07:27:35.726Z,10.88
2016-10-19T07:28:35.745Z,10.86
2016-10-19T07:29:35.768Z,10.74
2016-10-19T07:30:50.712Z,10.67
2016-10-19T07:31:35.825Z,10.74
2016-10-19T07:32:35.844Z,10.67
2016-10-19T07:33:35.858Z,10.64
2016-10-19T07:34:35.878Z,10.68
2016-10-19T07:35:36.242Z,10.6
2016-10-19T07:36:35.927Z,10.61
2016-10-19T07:37:50.865Z,10.48
2016-10-19T07:38:35.969Z,10.45
2016-10-19T07:39:35.983Z,10.44
2016-10-19T07:40:36.014Z,10.56
2016-10-19T07:41:36.030Z,10.51
2016-10-19T07:42:36.055Z,10.52
2016-10-19T07:43:36.081Z,10.47
2016-10-19T07:44:36.100Z,10.55
2016-10-19T07:45:36.117Z,10.64
2016-10-19T07:47:36.161Z,10.66
2016-10-19T07:48:36.176Z,10.66
2016-10-19T07:49:36.213Z,10.68
2016-10-19T07:51:36.253Z,10.6
2016-10-19T07:52:36.272Z,10.56
2016-10-19T07:53:36.289Z,10.48
2016-10-19T07:54:36.315Z,10.44
2016-10-19T07:55:36.337Z,10.36
2016-10-19T07:56:36.358Z,10.33
2016-10-19T07:58:36.399Z,10.44
2016-10-19T07:59:51.334Z,10.36
2016-10-19T08:00:36.436Z,10.4
2016-10-19T08:01:51.380Z,10.27
2016-10-19T08:02:36.488Z,10.3
2016-10-19T08:03:36.511Z,10.2
2016-10-19T08:04:36.524Z,10.29
2016-10-19T08:05:36.550Z,10.38
2016-10-19T08:06:36.568Z,10.27
2016-10-19T08:07:36.586Z,10.25
2016-10-19T08:08:36.615Z,10.27
2016-10-19T08:09:36.641Z,10.22
2016-10-19T08:10:36.660Z,10.26
2016-10-19T08:11:36.681Z,10.17
2016-10-19T08:12:36.703Z,10.25
2016-10-19T08:13:36.971Z,10.2
2016-10-19T08:14:36.742Z,10.29
2016-10-19T08:15:36.797Z,10.29
2016-10-19T08:16:36.779Z,10.25
2016-10-19T08:17:36.807Z,10.26
2016-10-19T08:18:36.826Z,10.29
2016-10-19T08:19:36.847Z,10.22
2016-10-19T08:20:36.874Z,10.12
2016-10-19T08:21:36.893Z,10.15
2016-10-19T08:22:37.164Z,10.17
2016-10-19T08:23:36.934Z,10.22
2016-10-19T08:24:36.956Z,10.22
2016-10-19T08:25:36.990Z,10.11
2016-10-19T08:26:36.993Z,10.18
2016-10-19T08:27:37.019Z,10.2
2016-10-19T08:29:37.063Z,10.14
2016-10-19T08:30:37.079Z,10.17
2016-10-19T08:31:37.108Z,10.25
2016-10-19T08:32:37.161Z,10.27
2016-10-19T08:33:52.068Z,10.4
2016-10-19T08:34:37.166Z,10.36
2016-10-19T08:35:37.188Z,10.36
2016-10-19T08:37:37.532Z,10.53
2016-10-19T08:38:37.254Z,10.48
2016-10-19T08:41:37.356Z,10.44
2016-10-19T08:43:37.460Z,10.4
2016-10-19T08:44:37.380Z,10.44
2016-10-19T08:45:37.406Z,10.51
2016-10-19T08:46:37.429Z,10.51
2016-10-19T08:47:52.409Z,10.47
2016-10-19T08:48:37.466Z,10.44
2016-10-19T08:49:52.412Z,10.47
2016-10-19T08:50:37.514Z,10.48
2016-10-19T08:51:37.534Z,10.47
2016-10-19T08:53:37.579Z,10.61
2016-10-19T08:54:37.602Z,10.63
2016-10-19T08:55:37.619Z,10.63
2016-10-19T08:56:37.643Z,10.61
2016-10-19T08:57:37.664Z,10.52
2016-10-19T08:58:37.934Z,10.61
2016-10-19T08:59:37.708Z,10.44
2016-10-19T09:00:37.732Z,10.64
2016-10-19T09:01:37.748Z,10.63
2016-10-19T09:03:37.802Z,10.63
2016-10-19T09:04:37.812Z,10.67
2016-10-19T09:05:52.752Z,10.66
2016-10-19T09:06:37.864Z,10.7
2016-10-19T09:07:37.879Z,10.74
2016-10-19T09:08:37.907Z,10.68
2016-10-19T09:09:37.917Z,10.66
2016-10-19T09:10:38.145Z,10.76
2016-10-19T09:11:37.965Z,10.91
2016-10-19T09:12:37.987Z,11.04
2016-10-19T09:13:38.009Z,11.1
2016-10-19T09:14:38.039Z,11.11
2016-10-19T09:15:38.050Z,11.18
2016-10-19T09:16:38.074Z,11.22
2016-10-19T09:17:38.093Z,11.28
2016-10-19T09:18:38.123Z,11.4
2016-10-19T09:19:38.134Z,11.35
2016-10-19T09:21:53.349Z,11.35
2016-10-19T09:22:38.453Z,11.29
2016-10-19T09:23:38.235Z,11.32
2016-10-19T09:26:53.215Z,11.32
2016-10-19T09:27:38.615Z,11.33
2016-10-19T09:28:53.258Z,11.43
2016-10-19T09:29:38.366Z,11.37
2016-10-19T09:30:38.422Z,11.47
2016-10-19T09:31:38.405Z,11.52
2016-10-19T09:32:53.342Z,11.52
2016-10-19T09:33:38.497Z,11.64
2016-10-19T09:34:38.467Z,11.75
2016-10-19T09:35:38.500Z,11.8
2016-10-19T09:36:53.441Z,11.76
2016-10-19T09:37:38.540Z,11.8
2016-10-19T09:38:38.564Z,11.78
2016-10-19T09:39:38.587Z,11.95
2016-10-19T09:41:38.638Z,12.02
2016-10-19T09:42:53.572Z,12.19
2016-10-19T09:43:38.669Z,12.27
2016-10-19T09:44:38.692Z,12.41
2016-10-19T09:45:38.719Z,12.35
2016-10-19T09:46:38.736Z,12.46
2016-10-19T09:47:38.761Z,12.47
2016-10-19T09:48:38.784Z,12.47
2016-10-19T09:49:38.809Z,12.47
2016-10-19T09:50:38.835Z,12.46
2016-10-19T09:51:38.850Z,12.35
2016-10-19T09:52:38.882Z,12.34
2016-10-19T09:53:39.200Z,12.35
2016-10-19T09:54:38.922Z,12.45
2016-10-19T09:56:38.971Z,12.42
2016-10-19T09:57:38.995Z,12.53
2016-10-19T09:58:39.025Z,12.54
2016-10-19T09:59:53.961Z,12.67
2016-10-19T10:00:39.360Z,12.67
2016-10-19T10:01:39.087Z,12.7
2016-10-19T10:02:39.416Z,12.68
2016-10-19T10:03:54.050Z,12.79
2016-10-19T10:04:39.155Z,12.87
2016-10-19T10:05:39.178Z,12.9
2016-10-19T10:06:39.203Z,12.97
2016-10-19T10:07:39.229Z,12.92
2016-10-19T10:08:54.165Z,12.97
2016-10-19T10:09:39.264Z,13
2016-10-19T10:10:39.302Z,13.03
2016-10-19T10:11:39.321Z,12.92
2016-10-19T10:12:39.341Z,13.07
2016-10-19T10:13:39.360Z,13.03
2016-10-19T10:14:39.393Z,12.93
2016-10-19T10:15:39.407Z,12.93
2016-10-19T10:16:39.474Z,13.03
2016-10-19T10:17:39.466Z,13.12
2016-10-19T10:18:39.486Z,13.14
2016-10-19T10:19:39.505Z,13.12
2016-10-19T10:20:39.529Z,13.14
2016-10-19T10:22:39.577Z,13.15
2016-10-19T10:23:39.596Z,13.11
2016-10-19T10:24:54.539Z,13.08
2016-10-19T10:25:39.644Z,13.03
2016-10-19T10:26:39.673Z,13.03
2016-10-19T10:27:39.688Z,13.03
2016-10-19T10:28:39.716Z,13.03
2016-10-19T10:29:39.745Z,12.95
2016-10-19T10:31:39.793Z,13.17
2016-10-19T10:32:40.056Z,13.19
2016-10-19T10:33:39.834Z,13.2
2016-10-19T10:34:39.856Z,13.32
2016-10-19T10:35:39.890Z,13.49
2016-10-19T10:36:39.906Z,13.42
2016-10-19T10:37:39.931Z,13.46
2016-10-19T10:38:39.953Z,13.54
2016-10-19T10:39:39.975Z,13.57
2016-10-19T10:40:54.920Z,13.62
2016-10-19T10:41:40.033Z,13.57
2016-10-19T10:42:40.045Z,13.57
2016-10-19T10:43:40.068Z,13.51
2016-10-19T10:44:40.089Z,13.44
2016-10-19T10:45:40.120Z,13.52
2016-10-19T10:46:40.139Z,13.44
2016-10-19T10:47:40.165Z,13.44
2016-10-19T10:48:40.185Z,13.48
2016-10-19T10:49:40.210Z,13.49
2016-10-19T10:50:40.238Z,13.42
2016-10-19T10:51:40.260Z,13.46
2016-10-19T10:52:40.283Z,13.39
2016-10-19T10:53:40.298Z,13.33
2016-10-19T10:54:40.328Z,13.49
2016-10-19T10:55:40.350Z,13.46
2016-10-19T10:56:55.293Z,13.38
2016-10-19T10:57:40.394Z,13.42
2016-10-19T10:58:40.424Z,13.32
2016-10-19T10:59:40.443Z,13.44
2016-10-19T11:00:40.468Z,13.36
2016-10-19T11:01:40.496Z,13.29
2016-10-19T11:02:40.517Z,13.3
2016-10-19T11:03:40.538Z,13.41
2016-10-19T11:04:40.567Z,13.3
2016-10-19T11:05:40.587Z,13.33
2016-10-19T11:06:40.610Z,13.36
2016-10-19T11:07:40.638Z,13.33
2016-10-19T11:08:55.575Z,13.44
2016-10-19T11:09:40.684Z,13.54
2016-10-19T11:10:40.706Z,13.57
2016-10-19T11:11:55.647Z,13.46
2016-10-19T11:12:40.760Z,13.55
2016-10-19T11:13:40.778Z,13.46
2016-10-19T11:14:40.805Z,13.55
2016-10-19T11:15:40.828Z,13.59
2016-10-19T11:17:40.869Z,13.57
2016-10-19T11:18:55.817Z,13.57
2016-10-19T11:19:55.841Z,13.7
2016-10-19T11:20:40.943Z,13.63
2016-10-19T11:21:40.970Z,13.69
2016-10-19T11:22:40.993Z,13.63
2016-10-19T11:23:55.930Z,13.54
2016-10-19T11:24:41.044Z,13.62
2016-10-19T11:25:41.064Z,13.59
2016-10-19T11:26:41.084Z,13.62
2016-10-19T11:27:41.112Z,13.64
2016-10-19T11:28:41.132Z,13.67
2016-10-19T11:29:41.174Z,13.77
2016-10-19T11:30:41.189Z,13.79
2016-10-19T11:31:41.213Z,13.6
2016-10-19T11:32:41.229Z,13.57
2016-10-19T11:33:41.259Z,13.46
2016-10-19T11:34:41.273Z,13.45
2016-10-19T11:35:56.221Z,13.33
2016-10-19T11:36:41.325Z,13.36
2016-10-19T11:37:41.598Z,13.36
2016-10-19T11:38:41.371Z,13.15
2016-10-19T11:39:41.398Z,13.22
2016-10-19T11:40:41.424Z,13.22
2016-10-19T11:41:41.440Z,13.2
2016-10-19T11:42:41.464Z,13.22
2016-10-19T11:43:56.409Z,13.17
2016-10-19T11:44:41.522Z,13.22
2016-10-19T11:45:41.539Z,13.11
2016-10-19T11:46:41.557Z,13.25
2016-10-19T11:47:41.590Z,13.17
2016-10-19T11:49:41.639Z,13.29
2016-10-19T11:50:56.576Z,13.39
2016-10-19T11:51:41.673Z,13.38
2016-10-19T11:52:41.698Z,13.38
2016-10-19T11:53:41.733Z,13.33
2016-10-19T11:54:41.782Z,13.19
2016-10-19T11:55:41.776Z,13.15
2016-10-19T11:56:42.041Z,13.15
2016-10-19T11:57:41.821Z,13.2
2016-10-19T11:58:41.842Z,13.22
2016-10-19T11:59:56.782Z,13.28
2016-10-19T12:00:41.884Z,13.2
2016-10-19T12:01:41.912Z,13.38
2016-10-19T12:02:41.942Z,13.48
2016-10-19T12:03:42.268Z,13.41
2016-10-19T12:04:41.981Z,13.39
2016-10-19T12:05:42.004Z,13.38
2016-10-19T12:06:42.031Z,13.32
2016-10-19T12:07:42.057Z,13.3
2016-10-19T12:08:42.079Z,13.48
2016-10-19T12:09:42.099Z,13.45
2016-10-19T12:10:42.124Z,13.44
2016-10-19T12:11:42.147Z,13.52
2016-10-19T12:12:42.167Z,13.55
2016-10-19T12:13:42.197Z,13.39
2016-10-19T12:14:42.212Z,13.45
2016-10-19T12:15:57.156Z,13.52
2016-10-19T12:16:42.257Z,13.6
2016-10-19T12:17:42.283Z,13.57
2016-10-19T12:18:42.316Z,13.63
2016-10-19T12:19:42.373Z,13.71
2016-10-19T12:20:42.352Z,13.71
2016-10-19T12:21:42.383Z,13.71
2016-10-19T12:22:42.407Z,13.79
2016-10-19T12:23:42.428Z,13.79
2016-10-19T12:24:42.446Z,13.77
2016-10-19T12:25:42.473Z,13.73
2016-10-19T12:26:57.416Z,13.62
2016-10-19T12:27:42.523Z,13.6
2016-10-19T12:28:42.549Z,13.6
2016-10-19T12:29:42.571Z,13.6
2016-10-19T12:30:42.589Z,13.63
2016-10-19T12:31:57.536Z,13.54
2016-10-19T12:32:42.671Z,13.55
2016-10-19T12:33:42.665Z,13.59
2016-10-19T12:34:42.683Z,13.57
2016-10-19T12:35:42.958Z,13.48
2016-10-19T12:36:42.788Z,13.46
2016-10-19T12:37:42.797Z,13.36
2016-10-19T12:38:57.701Z,13.29
2016-10-19T12:39:42.808Z,13.19
2016-10-19T12:40:42.831Z,13.19
2016-10-19T12:41:42.850Z,13.22
2016-10-19T12:42:42.873Z,13.22
2016-10-19T12:43:57.816Z,13.04
2016-10-19T12:44:42.929Z,13.04
2016-10-19T12:45:42.943Z,13.05
2016-10-19T12:46:57.891Z,12.92
2016-10-19T12:47:42.995Z,12.87
2016-10-19T12:48:43.024Z,12.77
2016-10-19T12:49:43.039Z,12.86
2016-10-19T12:50:43.070Z,12.92
2016-10-19T12:51:43.096Z,13.04
2016-10-19T12:52:43.113Z,13.01
2016-10-19T12:53:43.143Z,13.12
2016-10-19T12:54:58.079Z,13.22
2016-10-19T12:55:43.187Z,13.38
2016-10-19T12:56:43.206Z,13.49
2016-10-19T12:57:43.232Z,13.54
2016-10-19T12:58:43.258Z,13.54
2016-10-19T12:59:43.277Z,13.55
2016-10-19T13:00:43.294Z,13.6
2016-10-19T13:01:43.327Z,13.66
2016-10-19T13:02:43.350Z,13.67
2016-10-19T13:03:43.371Z,13.71
2016-10-19T13:04:43.401Z,13.67
2016-10-19T13:05:43.419Z,13.62
2016-10-19T13:06:43.696Z,13.63
2016-10-19T13:07:43.469Z,13.54
2016-10-19T13:09:43.529Z,13.54
2016-10-19T13:10:43.790Z,13.44
2016-10-19T13:11:58.480Z,13.32
2016-10-19T13:12:43.584Z,13.32
2016-10-19T13:13:58.526Z,13.3
2016-10-19T13:14:43.671Z,13.2
2016-10-19T13:15:43.658Z,13.19
2016-10-19T13:16:43.680Z,13.05
2016-10-19T13:17:43.704Z,13.03
2016-10-19T13:18:58.649Z,12.93
2016-10-19T13:19:43.747Z,12.89
2016-10-19T13:20:43.807Z,12.92
2016-10-19T13:21:43.789Z,12.89
2016-10-19T13:23:43.841Z,12.85
2016-10-19T13:24:43.866Z,12.87
2016-10-19T13:26:43.985Z,12.77
2016-10-19T13:27:43.936Z,12.65
2016-10-19T13:28:44.266Z,12.52
2016-10-19T13:29:43.981Z,12.46
2016-10-19T13:30:44.005Z,12.39
2016-10-19T13:31:44.037Z,12.28
2016-10-19T13:32:44.055Z,12.13
2016-10-19T13:33:44.075Z,12.17
2016-10-19T13:34:59.019Z,12.07
2016-10-19T13:35:44.118Z,12.19
2016-10-19T13:36:44.152Z,12.2
2016-10-19T13:37:44.166Z,12.29
2016-10-19T13:38:44.197Z,12.28
2016-10-19T13:39:44.208Z,12.24
2016-10-19T13:40:44.292Z,12.27
2016-10-19T13:41:44.257Z,12.35
2016-10-19T13:42:59.202Z,12.46
2016-10-19T13:43:44.305Z,12.49
2016-10-19T13:44:44.328Z,12.47
2016-10-19T13:45:44.358Z,12.6
2016-10-19T13:46:44.374Z,12.54
2016-10-19T13:47:59.314Z,12.54
2016-10-19T13:49:44.454Z,12.68
2016-10-19T13:50:59.423Z,12.6